»·PEaware :: N413C KWVI-KOAK

N413C :: KWVI-KOAK

FLIGHT INFORMATION

Flight Status: Arrived
Operator: Privately registered:
United States
More flights under this callsign
Pilot: Alec D. (17934)
Aircraft: BEECH AIRCRAFT BONANZA
(BE35)
More flights by this aircraft type
Origin: KWVI Watsonville Mun
United States
Destination: KOAK Metro Oakland Intl
United States
More flights between these airports :: More routes between these airports
Route: SNS V111 KARNN V301 SUNOL
File this flight plan on PilotEdge
Remarks: Will fly WVI4 ODP
Altitude:
(Current/Filed)
8,000ft
Speed:
(Current/Filed)
160kts
Departed: 10-Sep-20 12:03 PM
Arrived: 10-Sep-20 12:36 PM
Distance/Time
Traveled:
52nm/0:33
Distance/Time
To Go:
Arrived

Flight Plot

Page will automatically refresh every two minutes.

Flight plan parsing failed; only flown route is shown


Map Options




Map Legend


Flown Route
Filed Route
Departure Airport
Arrival Airport
Navaid (VOR, NDB)
Fix

Horizontal Profiles

Position Reports

Time Latitude Longitude Heading Altitude Ground
Speed
10-Sep-20 11:45 36.935470 -121.787606 90 163ft 0kts
10-Sep-20 11:46 36.935470 -121.787606 90 163ft 0kts
10-Sep-20 11:47 36.935470 -121.787606 90 163ft 0kts
10-Sep-20 11:48 36.935470 -121.787606 90 163ft 0kts
10-Sep-20 11:49 36.935470 -121.787606 90 163ft 0kts
10-Sep-20 11:50 36.935470 -121.787600 90 163ft 0kts
10-Sep-20 11:51 36.935470 -121.787591 90 163ft 0kts
10-Sep-20 11:52 36.935470 -121.787581 90 163ft 0kts
10-Sep-20 11:53 36.935470 -121.787571 90 163ft 0kts
10-Sep-20 11:54 36.935121 -121.787817 307 163ft 9kts
10-Sep-20 11:55 36.937625 -121.787446 34 163ft 12kts
10-Sep-20 11:56 36.938743 -121.787077 293 163ft 0kts
10-Sep-20 11:57 36.938747 -121.787089 293 163ft 0kts
10-Sep-20 11:58 36.938751 -121.787098 293 163ft 0kts
10-Sep-20 11:59 36.938754 -121.787107 293 163ft 0kts
10-Sep-20 12:00 36.938757 -121.787116 293 163ft 0kts
10-Sep-20 12:01 36.938760 -121.787124 293 163ft 0kts
10-Sep-20 12:02 36.936263 -121.790098 212 163ft 66kts
10-Sep-20 12:03 36.914422 -121.812052 213 1247ft 112kts
10-Sep-20 12:04 36.883468 -121.812001 171 2478ft 115kts
10-Sep-20 12:05 36.852638 -121.806917 173 3618ft 107kts
10-Sep-20 12:06 36.822806 -121.803426 175 4656ft 109kts
10-Sep-20 12:07 36.794517 -121.793977 147 5718ft 104kts
10-Sep-20 12:08 36.780695 -121.762895 75 6567ft 122kts
10-Sep-20 12:09 36.812626 -121.745928 13 7417ft 132kts
10-Sep-20 12:10 36.849028 -121.737158 8 8049ft 146kts
10-Sep-20 12:11 36.893637 -121.742368 358 8012ft 169kts
10-Sep-20 12:12 36.941115 -121.745846 356 8024ft 170kts
10-Sep-20 12:13 36.988625 -121.750766 355 8021ft 172kts
10-Sep-20 12:14 37.036431 -121.755477 356 8022ft 172kts
10-Sep-20 12:15 37.084381 -121.760089 356 8023ft 172kts
10-Sep-20 12:16 37.132252 -121.764664 356 8023ft 172kts
10-Sep-20 12:17 37.180095 -121.769250 356 8028ft 172kts
10-Sep-20 12:18 37.228310 -121.773878 356 8027ft 181kts
10-Sep-20 12:19 37.278835 -121.778734 356 8020ft 177kts
10-Sep-20 12:20 37.327316 -121.783385 356 8022ft 173kts
10-Sep-20 12:21 37.376043 -121.788062 356 7754ft 181kts
10-Sep-20 12:22 37.427334 -121.792949 357 7115ft 187kts
10-Sep-20 12:23 37.477564 -121.804984 335 6425ft 184kts
10-Sep-20 12:24 37.523720 -121.832154 333 5725ft 181kts
10-Sep-20 12:25 37.569312 -121.857889 335 5103ft 177kts
10-Sep-20 12:26 37.607861 -121.890887 318 4580ft 165kts
10-Sep-20 12:27 37.637248 -121.933647 290 3877ft 157kts
10-Sep-20 12:28 37.653520 -121.982772 290 3403ft 132kts
10-Sep-20 12:29 37.665611 -122.020174 291 3000ft 110kts
10-Sep-20 12:30 37.677463 -122.056856 293 2394ft 115kts
10-Sep-20 12:31 37.688621 -122.093531 289 1825ft 109kts
10-Sep-20 12:32 37.700367 -122.128577 292 1304ft 109kts
10-Sep-20 12:33 37.711250 -122.163745 292 705ft 106kts
10-Sep-20 12:34 37.722524 -122.197558 291 178ft 99kts
10-Sep-20 12:35 37.728003 -122.213100 20 9ft 1kts
10-Sep-20 12:36 37.728335 -122.211680 356 9ft 9kts
10-Sep-20 12:37 37.729753 -122.211191 297 9ft 0kts
10-Sep-20 12:38 37.729755 -122.211196 297 9ft 0kts
10-Sep-20 12:39 37.729755 -122.211196 297 9ft 0kts

Navigation Log

Ident Type
Flight plan parsing failed, navigation log unavailable